sensor_id;sensor_type;location;lat;lon;timestamp;pressure;altitude;pressure_sealevel;temperature;humidity
6413;BME280;3239;48.714;9.472;2022-09-03T00:00:09;97742.34;;;18.05;100.00
6413;BME280;3239;48.714;9.472;2022-09-03T00:09:00;97757.09;;;18.08;100.00
6413;BME280;3239;48.714;9.472;2022-09-03T00:14:14;97753.41;;;18.15;100.00
6413;BME280;3239;48.714;9.472;2022-09-03T00:19:22;97747.31;;;18.07;100.00
6413;BME280;3239;48.714;9.472;2022-09-03T00:22:22;97738.09;;;18.14;100.00
6413;BME280;3239;48.714;9.472;2022-09-03T00:24:51;97734.75;;;18.15;100.00
6413;BME280;3239;48.714;9.472;2022-09-03T00:27:23;97742.50;;;18.17;100.00
6413;BME280;3239;48.714;9.472;2022-09-03T00:30:08;97741.63;;;18.14;100.00
6413;BME280;3239;48.714;9.472;2022-09-03T00:32:55;97734.34;;;18.09;100.00
6413;BME280;3239;48.714;9.472;2022-09-03T00:35:31;97733.88;;;18.13;100.00
6413;BME280;3239;48.714;9.472;2022-09-03T00:37:59;97742.34;;;18.15;100.00
6413;BME280;3239;48.714;9.472;2022-09-03T00:43:17;97746.72;;;18.18;100.00
6413;BME280;3239;48.714;9.472;2022-09-03T00:46:09;97738.84;;;18.14;100.00
6413;BME280;3239;48.714;9.472;2022-09-03T00:49:10;97736.66;;;18.13;100.00
6413;BME280;3239;48.714;9.472;2022-09-03T01:05:36;97737.09;;;18.09;100.00
6413;BME280;3239;48.714;9.472;2022-09-03T01:08:15;97743.22;;;18.08;100.00
6413;BME280;3239;48.714;9.472;2022-09-03T01:11:02;97738.13;;;18.04;100.00
6413;BME280;3239;48.714;9.472;2022-09-03T01:14:04;97742.06;;;18.01;100.00
6413;BME280;3239;48.714;9.472;2022-09-03T01:16:37;97738.25;;;18.06;100.00
6413;BME280;3239;48.714;9.472;2022-09-03T01:22:18;97738.28;;;17.97;100.00
6413;BME280;3239;48.714;9.472;2022-09-03T01:25:24;97733.91;;;18.03;100.00
6413;BME280;3239;48.714;9.472;2022-09-03T01:30:44;97731.84;;;17.94;100.00
6413;BME280;3239;48.714;9.472;2022-09-03T01:39:04;97736.22;;;17.88;100.00
6413;BME280;3239;48.714;9.472;2022-09-03T01:42:19;97739.59;;;17.96;100.00
6413;BME280;3239;48.714;9.472;2022-09-03T01:47:55;97735.94;;;17.93;100.00
6413;BME280;3239;48.714;9.472;2022-09-03T01:50:53;97737.97;;;17.93;100.00
6413;BME280;3239;48.714;9.472;2022-09-03T01:57:06;97761.47;;;17.92;100.00
6413;BME280;3239;48.714;9.472;2022-09-03T02:02:26;97756.81;;;17.85;100.00
6413;BME280;3239;48.714;9.472;2022-09-03T02:05:11;97754.47;;;17.91;100.00
6413;BME280;3239;48.714;9.472;2022-09-03T02:07:58;97745.56;;;17.83;100.00
6413;BME280;3239;48.714;9.472;2022-09-03T02:10:37;97750.09;;;17.88;100.00
6413;BME280;3239;48.714;9.472;2022-09-03T02:13:19;97762.19;;;17.83;100.00
6413;BME280;3239;48.714;9.472;2022-09-03T02:15:47;97760.16;;;17.83;100.00
6413;BME280;3239;48.714;9.472;2022-09-03T02:18:41;97767.03;;;17.82;100.00
6413;BME280;3239;48.714;9.472;2022-09-03T02:21:08;97763.81;;;17.86;100.00
6413;BME280;3239;48.714;9.472;2022-09-03T02:23:39;97772.69;;;17.84;100.00
6413;BME280;3239;48.714;9.472;2022-09-03T02:26:06;97769.19;;;17.84;100.00
6413;BME280;3239;48.714;9.472;2022-09-03T02:28:33;97771.38;;;17.85;100.00
6413;BME280;3239;48.714;9.472;2022-09-03T02:30:59;97776.19;;;17.75;100.00
6413;BME280;3239;48.714;9.472;2022-09-03T02:33:25;97765.25;;;17.77;100.00
6413;BME280;3239;48.714;9.472;2022-09-03T02:35:52;97769.19;;;17.74;100.00
6413;BME280;3239;48.714;9.472;2022-09-03T02:38:24;97774.88;;;17.67;100.00
6413;BME280;3239;48.714;9.472;2022-09-03T02:40:50;97765.41;;;17.60;100.00
6413;BME280;3239;48.714;9.472;2022-09-03T02:43:30;97763.91;;;17.59;100.00
6413;BME280;3239;48.714;9.472;2022-09-03T02:46:02;97768.88;;;17.51;100.00
6413;BME280;3239;48.714;9.472;2022-09-03T02:48:29;97762.16;;;17.54;100.00
6413;BME280;3239;48.714;9.472;2022-09-03T02:50:55;97756.91;;;17.58;100.00
6413;BME280;3239;48.714;9.472;2022-09-03T02:53:21;97766.81;;;17.52;100.00
6413;BME280;3239;48.714;9.472;2022-09-03T02:55:47;97771.34;;;17.47;100.00
6413;BME280;3239;48.714;9.472;2022-09-03T02:58:12;97760.84;;;17.46;100.00
6413;BME280;3239;48.714;9.472;2022-09-03T03:00:38;97769.09;;;17.36;100.00
6413;BME280;3239;48.714;9.472;2022-09-03T03:03:05;97774.25;;;17.40;100.00
6413;BME280;3239;48.714;9.472;2022-09-03T03:08:09;97780.31;;;17.29;100.00
6413;BME280;3239;48.714;9.472;2022-09-03T03:10:40;97784.97;;;17.26;100.00
6413;BME280;3239;48.714;9.472;2022-09-03T03:13:07;97782.94;;;17.27;100.00
6413;BME280;3239;48.714;9.472;2022-09-03T03:15:32;97788.59;;;17.19;100.00
6413;BME280;3239;48.714;9.472;2022-09-03T03:17:58;97775.00;;;17.14;100.00
6413;BME280;3239;48.714;9.472;2022-09-03T03:20:24;97773.28;;;17.18;100.00
6413;BME280;3239;48.714;9.472;2022-09-03T03:22:50;97766.88;;;17.16;100.00
6413;BME280;3239;48.714;9.472;2022-09-03T03:25:16;97781.84;;;17.13;100.00
6413;BME280;3239;48.714;9.472;2022-09-03T03:27:41;97778.34;;;17.12;100.00
6413;BME280;3239;48.714;9.472;2022-09-03T03:30:09;97779.94;;;17.06;100.00
6413;BME280;3239;48.714;9.472;2022-09-03T03:32:36;97783.53;;;16.99;100.00
6413;BME280;3239;48.714;9.472;2022-09-03T03:35:03;97784.84;;;16.98;100.00
6413;BME280;3239;48.714;9.472;2022-09-03T03:37:30;97776.97;;;16.94;100.00
6413;BME280;3239;48.714;9.472;2022-09-03T03:39:56;97782.47;;;16.85;100.00
6413;BME280;3239;48.714;9.472;2022-09-03T03:42:22;97785.66;;;16.81;100.00
6413;BME280;3239;48.714;9.472;2022-09-03T03:44:47;97800.06;;;16.80;100.00
6413;BME280;3239;48.714;9.472;2022-09-03T03:47:13;97791.88;;;16.72;100.00
6413;BME280;3239;48.714;9.472;2022-09-03T03:49:42;97788.06;;;16.68;100.00
6413;BME280;3239;48.714;9.472;2022-09-03T03:52:08;97786.91;;;16.71;100.00
6413;BME280;3239;48.714;9.472;2022-09-03T03:54:34;97793.13;;;16.62;100.00
6413;BME280;3239;48.714;9.472;2022-09-03T03:57:00;97790.22;;;16.60;100.00
6413;BME280;3239;48.714;9.472;2022-09-03T03:59:26;97787.59;;;16.62;100.00
6413;BME280;3239;48.714;9.472;2022-09-03T04:01:54;97796.78;;;16.64;100.00
6413;BME280;3239;48.714;9.472;2022-09-03T04:04:20;97795.69;;;16.50;100.00
6413;BME280;3239;48.714;9.472;2022-09-03T04:06:47;97798.34;;;16.58;100.00
6413;BME280;3239;48.714;9.472;2022-09-03T04:09:12;97799.75;;;16.49;100.00
6413;BME280;3239;48.714;9.472;2022-09-03T04:11:38;97806.91;;;16.52;100.00
6413;BME280;3239;48.714;9.472;2022-09-03T04:14:04;97801.03;;;16.48;100.00
6413;BME280;3239;48.714;9.472;2022-09-03T04:16:30;97795.84;;;16.52;100.00
6413;BME280;3239;48.714;9.472;2022-09-03T04:18:57;97792.94;;;16.50;100.00
6413;BME280;3239;48.714;9.472;2022-09-03T04:21:26;97800.06;;;16.53;100.00
6413;BME280;3239;48.714;9.472;2022-09-03T04:23:53;97799.84;;;16.42;100.00
6413;BME280;3239;48.714;9.472;2022-09-03T04:26:28;97799.25;;;16.43;100.00
6413;BME280;3239;48.714;9.472;2022-09-03T04:28:59;97804.06;;;16.43;100.00
6413;BME280;3239;48.714;9.472;2022-09-03T04:31:26;97794.22;;;16.49;100.00
6413;BME280;3239;48.714;9.472;2022-09-03T04:33:52;97793.44;;;16.39;100.00
6413;BME280;3239;48.714;9.472;2022-09-03T04:36:22;97794.63;;;16.46;100.00
6413;BME280;3239;48.714;9.472;2022-09-03T04:38:51;97795.94;;;16.45;100.00
6413;BME280;3239;48.714;9.472;2022-09-03T04:41:30;97793.34;;;16.47;100.00
6413;BME280;3239;48.714;9.472;2022-09-03T04:43:57;97802.91;;;16.46;100.00
6413;BME280;3239;48.714;9.472;2022-09-03T04:46:25;97802.34;;;16.47;100.00
6413;BME280;3239;48.714;9.472;2022-09-03T04:48:53;97798.28;;;16.48;100.00
6413;BME280;3239;48.714;9.472;2022-09-03T04:51:23;97801.78;;;16.49;100.00
6413;BME280;3239;48.714;9.472;2022-09-03T04:53:56;97808.88;;;16.42;100.00
6413;BME280;3239;48.714;9.472;2022-09-03T04:56:26;97806.66;;;16.41;100.00
6413;BME280;3239;48.714;9.472;2022-09-03T04:59:01;97815.03;;;16.50;100.00
6413;BME280;3239;48.714;9.472;2022-09-03T05:01:30;97804.69;;;16.51;100.00
6413;BME280;3239;48.714;9.472;2022-09-03T05:03:57;97806.31;;;16.54;100.00
6413;BME280;3239;48.714;9.472;2022-09-03T05:06:25;97803.38;;;16.52;100.00
6413;BME280;3239;48.714;9.472;2022-09-03T05:08:52;97807.38;;;16.58;100.00
6413;BME280;3239;48.714;9.472;2022-09-03T05:11:19;97806.75;;;16.50;100.00
6413;BME280;3239;48.714;9.472;2022-09-03T05:13:50;97804.28;;;16.54;100.00
6413;BME280;3239;48.714;9.472;2022-09-03T05:16:17;97809.66;;;16.52;100.00
6413;BME280;3239;48.714;9.472;2022-09-03T05:18:44;97812.09;;;16.48;100.00
6413;BME280;3239;48.714;9.472;2022-09-03T05:21:14;97806.16;;;16.52;100.00
6413;BME280;3239;48.714;9.472;2022-09-03T05:23:43;97812.28;;;16.50;100.00
6413;BME280;3239;48.714;9.472;2022-09-03T05:26:22;97796.88;;;16.57;100.00
6413;BME280;3239;48.714;9.472;2022-09-03T05:28:57;97804.28;;;16.54;100.00
6413;BME280;3239;48.714;9.472;2022-09-03T05:31:26;97798.66;;;16.62;100.00
6413;BME280;3239;48.714;9.472;2022-09-03T05:33:58;97800.13;;;16.63;100.00
6413;BME280;3239;48.714;9.472;2022-09-03T05:36:28;97796.47;;;16.60;100.00
6413;BME280;3239;48.714;9.472;2022-09-03T05:38:54;97809.31;;;16.65;100.00
6413;BME280;3239;48.714;9.472;2022-09-03T05:41:21;97814.69;;;16.63;100.00
6413;BME280;3239;48.714;9.472;2022-09-03T05:43:49;97814.78;;;16.56;100.00
6413;BME280;3239;48.714;9.472;2022-09-03T05:46:30;97820.31;;;16.56;100.00
6413;BME280;3239;48.714;9.472;2022-09-03T05:49:02;97819.50;;;16.63;100.00
6413;BME280;3239;48.714;9.472;2022-09-03T05:51:29;97825.50;;;16.69;100.00
6413;BME280;3239;48.714;9.472;2022-09-03T05:53:57;97823.28;;;16.67;100.00
6413;BME280;3239;48.714;9.472;2022-09-03T05:56:27;97824.19;;;16.70;100.00
6413;BME280;3239;48.714;9.472;2022-09-03T05:58:56;97830.59;;;16.72;100.00
6413;BME280;3239;48.714;9.472;2022-09-03T06:01:26;97824.50;;;16.74;100.00
6413;BME280;3239;48.714;9.472;2022-09-03T06:03:56;97828.34;;;16.88;100.00
6413;BME280;3239;48.714;9.472;2022-09-03T06:06:24;97827.09;;;16.98;100.00
6413;BME280;3239;48.714;9.472;2022-09-03T06:09:03;97836.41;;;16.93;100.00
6413;BME280;3239;48.714;9.472;2022-09-03T06:11:31;97831.22;;;17.07;100.00
6413;BME280;3239;48.714;9.472;2022-09-03T06:13:59;97833.00;;;17.12;100.00
6413;BME280;3239;48.714;9.472;2022-09-03T06:16:31;97835.66;;;17.19;100.00
6413;BME280;3239;48.714;9.472;2022-09-03T06:18:58;97829.13;;;17.24;100.00
6413;BME280;3239;48.714;9.472;2022-09-03T06:21:24;97825.94;;;17.37;100.00
6413;BME280;3239;48.714;9.472;2022-09-03T06:23:53;97829.88;;;17.34;100.00
6413;BME280;3239;48.714;9.472;2022-09-03T06:26:21;97845.91;;;17.36;100.00
6413;BME280;3239;48.714;9.472;2022-09-03T06:28:48;97841.91;;;17.46;100.00
6413;BME280;3239;48.714;9.472;2022-09-03T06:31:17;97833.22;;;17.33;100.00
6413;BME280;3239;48.714;9.472;2022-09-03T06:33:44;97839.25;;;17.39;100.00
6413;BME280;3239;48.714;9.472;2022-09-03T06:36:17;97841.19;;;17.55;100.00
6413;BME280;3239;48.714;9.472;2022-09-03T06:38:44;97845.88;;;17.62;100.00
6413;BME280;3239;48.714;9.472;2022-09-03T06:41:14;97837.28;;;17.68;100.00
6413;BME280;3239;48.714;9.472;2022-09-03T06:43:52;97834.34;;;17.66;100.00
6413;BME280;3239;48.714;9.472;2022-09-03T06:46:21;97836.13;;;17.80;100.00
6413;BME280;3239;48.714;9.472;2022-09-03T06:48:47;97835.56;;;17.72;100.00
6413;BME280;3239;48.714;9.472;2022-09-03T06:51:18;97837.88;;;17.66;100.00
6413;BME280;3239;48.714;9.472;2022-09-03T06:53:50;97836.56;;;17.77;100.00
6413;BME280;3239;48.714;9.472;2022-09-03T06:56:20;97840.84;;;17.97;100.00
6413;BME280;3239;48.714;9.472;2022-09-03T06:58:58;97836.75;;;18.26;100.00
6413;BME280;3239;48.714;9.472;2022-09-03T07:01:30;97833.41;;;18.09;100.00
6413;BME280;3239;48.714;9.472;2022-09-03T07:03:58;97836.75;;;17.98;100.00
6413;BME280;3239;48.714;9.472;2022-09-03T07:06:28;97840.56;;;18.12;100.00
6413;BME280;3239;48.714;9.472;2022-09-03T07:08:54;97836.31;;;18.20;100.00
6413;BME280;3239;48.714;9.472;2022-09-03T07:11:27;97835.91;;;18.33;100.00
6413;BME280;3239;48.714;9.472;2022-09-03T07:13:54;97833.88;;;18.34;100.00
6413;BME280;3239;48.714;9.472;2022-09-03T07:16:24;97842.06;;;18.32;100.00
6413;BME280;3239;48.714;9.472;2022-09-03T07:18:50;97843.47;;;18.14;100.00
6413;BME280;3239;48.714;9.472;2022-09-03T07:21:24;97849.59;;;18.12;100.00
6413;BME280;3239;48.714;9.472;2022-09-03T07:23:52;97853.97;;;18.15;100.00
6413;BME280;3239;48.714;9.472;2022-09-03T07:26:25;97844.34;;;17.97;100.00
6413;BME280;3239;48.714;9.472;2022-09-03T07:28:51;97853.25;;;18.05;100.00
6413;BME280;3239;48.714;9.472;2022-09-03T07:31:25;97852.09;;;18.08;100.00
6413;BME280;3239;48.714;9.472;2022-09-03T07:34:00;97856.44;;;18.02;100.00
6413;BME280;3239;48.714;9.472;2022-09-03T07:36:28;97859.81;;;18.00;100.00
6413;BME280;3239;48.714;9.472;2022-09-03T07:38:56;97866.78;;;18.01;100.00
6413;BME280;3239;48.714;9.472;2022-09-03T07:41:24;97869.88;;;18.05;100.00
6413;BME280;3239;48.714;9.472;2022-09-03T07:43:52;97868.13;;;18.00;100.00
6413;BME280;3239;48.714;9.472;2022-09-03T07:46:21;97870.63;;;18.15;100.00
6413;BME280;3239;48.714;9.472;2022-09-03T07:48:58;97877.31;;;18.12;100.00
6413;BME280;3239;48.714;9.472;2022-09-03T07:51:28;97876.16;;;18.15;100.00
6413;BME280;3239;48.714;9.472;2022-09-03T07:53:58;97884.78;;;18.19;100.00
6413;BME280;3239;48.714;9.472;2022-09-03T07:56:25;97888.00;;;18.25;100.00
6413;BME280;3239;48.714;9.472;2022-09-03T07:58:52;97891.03;;;18.10;100.00
6413;BME280;3239;48.714;9.472;2022-09-03T08:01:22;97906.22;;;18.19;100.00
6413;BME280;3239;48.714;9.472;2022-09-03T08:03:50;97907.41;;;18.16;100.00
6413;BME280;3239;48.714;9.472;2022-09-03T08:06:19;97909.56;;;18.17;100.00
6413;BME280;3239;48.714;9.472;2022-09-03T08:08:45;97901.44;;;18.38;100.00
6413;BME280;3239;48.714;9.472;2022-09-03T08:11:12;97902.47;;;18.33;100.00
6413;BME280;3239;48.714;9.472;2022-09-03T08:13:44;97899.56;;;18.41;100.00
6413;BME280;3239;48.714;9.472;2022-09-03T08:16:12;97894.28;;;18.54;100.00
6413;BME280;3239;48.714;9.472;2022-09-03T08:18:39;97892.94;;;18.93;100.00
6413;BME280;3239;48.714;9.472;2022-09-03T08:21:14;97878.31;;;19.02;100.00
6413;BME280;3239;48.714;9.472;2022-09-03T08:23:48;97880.75;;;19.17;100.00
6413;BME280;3239;48.714;9.472;2022-09-03T08:26:16;97881.03;;;19.31;100.00
6413;BME280;3239;48.714;9.472;2022-09-03T08:28:43;97882.50;;;19.62;100.00
6413;BME280;3239;48.714;9.472;2022-09-03T08:31:17;97886.69;;;19.73;100.00
6413;BME280;3239;48.714;9.472;2022-09-03T08:33:47;97878.78;;;20.00;100.00
6413;BME280;3239;48.714;9.472;2022-09-03T08:36:26;97882.69;;;20.06;100.00
6413;BME280;3239;48.714;9.472;2022-09-03T08:38:53;97876.16;;;20.02;100.00
6413;BME280;3239;48.714;9.472;2022-09-03T08:47:31;97878.53;;;19.96;100.00
6413;BME280;3239;48.714;9.472;2022-09-03T08:50:25;97883.03;;;20.01;100.00
6413;BME280;3239;48.714;9.472;2022-09-03T08:53:08;97890.63;;;19.79;100.00
6413;BME280;3239;48.714;9.472;2022-09-03T08:56:03;97886.50;;;20.64;100.00
6413;BME280;3239;48.714;9.472;2022-09-03T08:58:34;97890.09;;;20.23;100.00
6413;BME280;3239;48.714;9.472;2022-09-03T09:03:45;97886.84;;;20.80;100.00
6413;BME280;3239;48.714;9.472;2022-09-03T09:23:06;97846.84;;;25.20;98.61
6413;BME280;3239;48.714;9.472;2022-09-03T09:25:33;97855.88;;;24.45;100.00
6413;BME280;3239;48.714;9.472;2022-09-03T09:28:17;97847.31;;;24.27;100.00
6413;BME280;3239;48.714;9.472;2022-09-03T09:30:46;97843.47;;;25.85;91.13
6413;BME280;3239;48.714;9.472;2022-09-03T09:33:15;97842.50;;;25.94;86.17
6413;BME280;3239;48.714;9.472;2022-09-03T09:35:42;97841.25;;;26.15;90.76
6413;BME280;3239;48.714;9.472;2022-09-03T09:38:10;97834.00;;;25.61;90.53
6413;BME280;3239;48.714;9.472;2022-09-03T09:40:39;97843.25;;;26.12;90.22
6413;BME280;3239;48.714;9.472;2022-09-03T09:43:16;97842.78;;;25.69;86.06
6413;BME280;3239;48.714;9.472;2022-09-03T09:45:49;97842.78;;;25.54;85.95
6413;BME280;3239;48.714;9.472;2022-09-03T09:48:28;97850.19;;;25.94;91.31
6413;BME280;3239;48.714;9.472;2022-09-03T09:51:24;97839.28;;;26.02;83.44
6413;BME280;3239;48.714;9.472;2022-09-03T09:54:24;97841.13;;;26.46;77.64
6413;BME280;3239;48.714;9.472;2022-09-03T09:57:05;97842.22;;;26.39;77.68
6413;BME280;3239;48.714;9.472;2022-09-03T09:59:33;97838.66;;;26.03;79.10
6413;BME280;3239;48.714;9.472;2022-09-03T10:02:24;97831.63;;;25.09;84.80
6413;BME280;3239;48.714;9.472;2022-09-03T10:05:14;97831.88;;;25.29;90.04
6413;BME280;3239;48.714;9.472;2022-09-03T10:07:41;97830.34;;;26.05;84.62
6413;BME280;3239;48.714;9.472;2022-09-03T10:10:19;97826.94;;;26.77;81.05
6413;BME280;3239;48.714;9.472;2022-09-03T10:16:00;97831.34;;;26.47;73.15
6413;BME280;3239;48.714;9.472;2022-09-03T10:18:39;97832.50;;;27.49;70.43
6413;BME280;3239;48.714;9.472;2022-09-03T10:26:42;97832.09;;;27.95;63.80
6413;BME280;3239;48.714;9.472;2022-09-03T10:29:17;97819.66;;;28.02;64.83
6413;BME280;3239;48.714;9.472;2022-09-03T10:32:16;97820.13;;;26.64;69.76
6413;BME280;3239;48.714;9.472;2022-09-03T10:35:29;97830.25;;;27.65;67.51
6413;BME280;3239;48.714;9.472;2022-09-03T10:38:15;97819.19;;;28.51;66.51
6413;BME280;3239;48.714;9.472;2022-09-03T10:40:51;97827.03;;;27.33;65.85
6413;BME280;3239;48.714;9.472;2022-09-03T10:44:05;97824.34;;;27.76;68.33
6413;BME280;3239;48.714;9.472;2022-09-03T10:46:53;97830.59;;;27.16;66.75
6413;BME280;3239;48.714;9.472;2022-09-03T10:49:55;97832.78;;;26.48;69.83
6413;BME280;3239;48.714;9.472;2022-09-03T10:52:43;97829.38;;;26.67;71.90
6413;BME280;3239;48.714;9.472;2022-09-03T10:55:34;97823.19;;;25.38;77.27
6413;BME280;3239;48.714;9.472;2022-09-03T11:01:02;97818.81;;;25.35;79.59
6413;BME280;3239;48.714;9.472;2022-09-03T11:03:41;97818.81;;;25.51;83.38
6413;BME280;3239;48.714;9.472;2022-09-03T11:08:52;97811.66;;;25.63;83.29
6413;BME280;3239;48.714;9.472;2022-09-03T11:11:31;97811.63;;;25.79;87.03
6413;BME280;3239;48.714;9.472;2022-09-03T11:14:33;97805.78;;;25.42;93.72
6413;BME280;3239;48.714;9.472;2022-09-03T11:17:21;97801.63;;;25.43;100.00
6413;BME280;3239;48.714;9.472;2022-09-03T11:20:21;97801.59;;;25.12;100.00
6413;BME280;3239;48.714;9.472;2022-09-03T11:22:50;97798.94;;;25.29;99.67
6413;BME280;3239;48.714;9.472;2022-09-03T11:25:20;97797.16;;;25.07;95.88
6413;BME280;3239;48.714;9.472;2022-09-03T11:28:28;97791.44;;;24.58;100.00
6413;BME280;3239;48.714;9.472;2022-09-03T11:31:44;97793.00;;;24.92;100.00
6413;BME280;3239;48.714;9.472;2022-09-03T11:34:32;97785.31;;;24.77;99.44
6413;BME280;3239;48.714;9.472;2022-09-03T11:37:20;97788.78;;;24.91;99.02
6413;BME280;3239;48.714;9.472;2022-09-03T11:40:13;97804.47;;;24.54;100.00
6413;BME280;3239;48.714;9.472;2022-09-03T11:42:44;97806.28;;;24.47;100.00
6413;BME280;3239;48.714;9.472;2022-09-03T11:47:52;97801.69;;;24.25;100.00
6413;BME280;3239;48.714;9.472;2022-09-03T11:50:20;97802.69;;;24.02;100.00
6413;BME280;3239;48.714;9.472;2022-09-03T11:53:31;97809.53;;;23.86;100.00
6413;BME280;3239;48.714;9.472;2022-09-03T11:58:32;97825.59;;;23.58;100.00
6413;BME280;3239;48.714;9.472;2022-09-03T12:01:03;97819.88;;;23.43;100.00
6413;BME280;3239;48.714;9.472;2022-09-03T12:03:56;97837.63;;;23.09;100.00
6413;BME280;3239;48.714;9.472;2022-09-03T12:12:35;97852.41;;;22.73;100.00
6413;BME280;3239;48.714;9.472;2022-09-03T12:18:06;97867.38;;;22.29;100.00
6413;BME280;3239;48.714;9.472;2022-09-03T12:26:07;97928.28;;;21.41;100.00
6413;BME280;3239;48.714;9.472;2022-09-03T12:28:37;97998.28;;;21.24;100.00
6413;BME280;3239;48.714;9.472;2022-09-03T12:31:18;98040.72;;;20.29;100.00
6413;BME280;3239;48.714;9.472;2022-09-03T12:34:11;98086.28;;;19.17;100.00
6413;BME280;3239;48.714;9.472;2022-09-03T12:36:43;98147.22;;;18.24;100.00
6413;BME280;3239;48.714;9.472;2022-09-03T12:39:11;98244.00;;;18.03;100.00
6413;BME280;3239;48.714;9.472;2022-09-03T12:41:38;98312.72;;;17.88;100.00
6413;BME280;3239;48.714;9.472;2022-09-03T12:44:11;98371.97;;;17.75;100.00
6413;BME280;3239;48.714;9.472;2022-09-03T12:46:37;98401.13;;;17.59;100.00
6413;BME280;3239;48.714;9.472;2022-09-03T12:49:05;98453.09;;;17.76;100.00
6413;BME280;3239;48.714;9.472;2022-09-03T12:51:41;98495.50;;;18.10;100.00
6413;BME280;3239;48.714;9.472;2022-09-03T12:54:11;98529.34;;;18.09;100.00
6413;BME280;3239;48.714;9.472;2022-09-03T12:56:43;98542.44;;;18.16;100.00
6413;BME280;3239;48.714;9.472;2022-09-03T12:59:14;98537.75;;;17.69;100.00
6413;BME280;3239;48.714;9.472;2022-09-03T13:01:47;98569.47;;;17.83;100.00
6413;BME280;3239;48.714;9.472;2022-09-03T13:04:33;98566.69;;;17.83;100.00
6413;BME280;3239;48.714;9.472;2022-09-03T13:07:11;98563.31;;;17.92;100.00
6413;BME280;3239;48.714;9.472;2022-09-03T13:09:39;98549.22;;;17.98;100.00
6413;BME280;3239;48.714;9.472;2022-09-03T13:12:06;98542.47;;;17.84;100.00
6413;BME280;3239;48.714;9.472;2022-09-03T13:14:43;98517.13;;;17.63;100.00
6413;BME280;3239;48.714;9.472;2022-09-03T13:23:06;98535.66;;;18.34;100.00
6413;BME280;3239;48.714;9.472;2022-09-03T13:26:02;98525.94;;;18.18;100.00
6413;BME280;3239;48.714;9.472;2022-09-03T13:31:30;98497.16;;;17.89;100.00
6413;BME280;3239;48.714;9.472;2022-09-03T13:34:31;98487.13;;;17.44;100.00
6413;BME280;3239;48.714;9.472;2022-09-03T13:40:22;98503.91;;;17.46;100.00
6413;BME280;3239;48.714;9.472;2022-09-03T13:45:55;98543.63;;;17.41;100.00
6413;BME280;3239;48.714;9.472;2022-09-03T13:48:44;98550.66;;;17.35;100.00
6413;BME280;3239;48.714;9.472;2022-09-03T13:51:46;98560.78;;;17.47;100.00
6413;BME280;3239;48.714;9.472;2022-09-03T13:54:26;98559.78;;;17.92;100.00
6413;BME280;3239;48.714;9.472;2022-09-03T14:00:07;98531.25;;;18.23;100.00
6413;BME280;3239;48.714;9.472;2022-09-03T14:02:50;98494.38;;;19.23;100.00
6413;BME280;3239;48.714;9.472;2022-09-03T14:06:04;98405.50;;;20.23;100.00
6413;BME280;3239;48.714;9.472;2022-09-03T14:14:56;98139.06;;;22.22;100.00
6413;BME280;3239;48.714;9.472;2022-09-03T14:20:28;98115.59;;;21.28;100.00
6413;BME280;3239;48.714;9.472;2022-09-03T14:25:55;98086.69;;;21.44;100.00
6413;BME280;3239;48.714;9.472;2022-09-03T14:28:40;98065.38;;;22.85;100.00
6413;BME280;3239;48.714;9.472;2022-09-03T14:49:52;98001.56;;;23.04;100.00
6413;BME280;3239;48.714;9.472;2022-09-03T14:55:29;97983.53;;;22.82;100.00
6413;BME280;3239;48.714;9.472;2022-09-03T14:58:20;97983.78;;;23.23;100.00
6413;BME280;3239;48.714;9.472;2022-09-03T15:01:12;97946.00;;;23.35;100.00
6413;BME280;3239;48.714;9.472;2022-09-03T15:09:52;97935.84;;;24.34;100.00
6413;BME280;3239;48.714;9.472;2022-09-03T15:12:50;97937.03;;;25.74;100.00
6413;BME280;3239;48.714;9.472;2022-09-03T15:15:20;97907.66;;;28.42;100.00
6413;BME280;3239;48.714;9.472;2022-09-03T15:18:16;97871.94;;;30.66;84.21
6413;BME280;3239;48.714;9.472;2022-09-03T15:27:33;97862.34;;;35.74;49.03
6413;BME280;3239;48.714;9.472;2022-09-03T15:30:13;97873.97;;;34.19;47.87
6413;BME280;3239;48.714;9.472;2022-09-03T15:33:01;97869.53;;;32.53;51.34
6413;BME280;3239;48.714;9.472;2022-09-03T15:38:37;97865.75;;;32.01;55.79
6413;BME280;3239;48.714;9.472;2022-09-03T15:41:27;97864.63;;;31.16;63.77
6413;BME280;3239;48.714;9.472;2022-09-03T15:44:00;97860.53;;;31.54;59.38
6413;BME280;3239;48.714;9.472;2022-09-03T15:46:47;97864.19;;;34.36;50.78
6413;BME280;3239;48.714;9.472;2022-09-03T15:55:13;97877.00;;;31.97;58.05
6413;BME280;3239;48.714;9.472;2022-09-03T15:58:13;97862.84;;;28.95;78.33
6413;BME280;3239;48.714;9.472;2022-09-03T16:03:10;97866.28;;;27.49;100.00
6413;BME280;3239;48.714;9.472;2022-09-03T16:06:06;97868.19;;;25.89;100.00
6413;BME280;3239;48.714;9.472;2022-09-03T16:09:17;97878.91;;;25.46;100.00
6413;BME280;3239;48.714;9.472;2022-09-03T16:15:05;97902.78;;;23.77;100.00
6413;BME280;3239;48.714;9.472;2022-09-03T16:17:54;97901.16;;;23.08;100.00
6413;BME280;3239;48.714;9.472;2022-09-03T16:20:42;97921.53;;;22.72;100.00
6413;BME280;3239;48.714;9.472;2022-09-03T16:23:27;97940.09;;;22.68;100.00
6413;BME280;3239;48.714;9.472;2022-09-03T16:26:06;97976.69;;;22.37;100.00
6413;BME280;3239;48.714;9.472;2022-09-03T16:44:36;98021.16;;;21.66;100.00
6413;BME280;3239;48.714;9.472;2022-09-03T16:47:17;98037.16;;;21.54;100.00
6413;BME280;3239;48.714;9.472;2022-09-03T16:56:57;98085.84;;;21.21;100.00
6413;BME280;3239;48.714;9.472;2022-09-03T17:00:21;98096.63;;;21.15;100.00
6413;BME280;3239;48.714;9.472;2022-09-03T17:05:46;98131.84;;;20.89;100.00
6413;BME280;3239;48.714;9.472;2022-09-03T17:14:33;98185.16;;;20.55;100.00
6413;BME280;3239;48.714;9.472;2022-09-03T17:26:11;98240.44;;;20.40;100.00
6413;BME280;3239;48.714;9.472;2022-09-03T17:35:09;98286.91;;;20.09;100.00
6413;BME280;3239;48.714;9.472;2022-09-03T17:38:18;98312.22;;;20.13;100.00
6413;BME280;3239;48.714;9.472;2022-09-03T17:46:59;98335.00;;;19.92;100.00
6413;BME280;3239;48.714;9.472;2022-09-03T17:49:56;98350.97;;;19.82;100.00
6413;BME280;3239;48.714;9.472;2022-09-03T17:57:49;98391.84;;;19.53;100.00
6413;BME280;3239;48.714;9.472;2022-09-03T18:00:50;98396.19;;;19.47;100.00
6413;BME280;3239;48.714;9.472;2022-09-03T18:03:29;98397.38;;;19.44;100.00
6413;BME280;3239;48.714;9.472;2022-09-03T18:06:03;98410.34;;;19.32;100.00